createdAt,value
2023-04-13T00:00:33.888Z,93.20
2023-04-13T00:03:02.411Z,93.40
2023-04-13T00:05:31.280Z,93.30
2023-04-13T00:08:03.197Z,93.40
2023-04-13T00:10:36.179Z,93.50
2023-04-13T00:13:05.301Z,93.50
2023-04-13T00:15:34.827Z,93.50
2023-04-13T00:18:03.597Z,93.60
2023-04-13T00:20:32.216Z,93.60
2023-04-13T00:23:01.914Z,93.70
2023-04-13T00:25:30.656Z,93.80
2023-04-13T00:28:02.722Z,93.90
2023-04-13T00:30:31.298Z,94.00
2023-04-13T00:32:59.688Z,94.10
2023-04-13T00:35:28.048Z,94.20
2023-04-13T00:37:56.331Z,94.40
2023-04-13T00:40:28.255Z,94.40
2023-04-13T00:42:56.832Z,94.60
2023-04-13T00:45:25.341Z,94.70
2023-04-13T00:47:54.332Z,94.70
2023-04-13T00:50:22.613Z,94.80
2023-04-13T00:52:51.128Z,94.80
2023-04-13T00:55:22.077Z,94.80
2023-04-13T00:57:53.197Z,94.80
2023-04-13T01:00:24.720Z,95.00
2023-04-13T01:02:53.634Z,95.20
2023-04-13T01:05:23.159Z,95.30
2023-04-13T01:08:02.881Z,95.50
2023-04-13T01:10:37.933Z,95.60
2023-04-13T01:13:13.945Z,95.70
2023-04-13T01:15:47.898Z,95.80
2023-04-13T01:18:17.693Z,96.10
2023-04-13T01:20:47.700Z,96.10
2023-04-13T01:23:28.616Z,96.20
2023-04-13T01:26:00.666Z,96.30
2023-04-13T01:28:32.282Z,96.30
2023-04-13T01:31:02.190Z,96.40
2023-04-13T01:33:33.538Z,96.50
2023-04-13T01:36:03.058Z,96.50
2023-04-13T01:38:31.366Z,96.50
2023-04-13T01:40:59.686Z,96.60
2023-04-13T01:43:31.092Z,96.80
2023-04-13T01:46:04.912Z,97.00
2023-04-13T01:48:38.237Z,97.70
2023-04-13T01:51:13.556Z,97.50
2023-04-13T01:53:45.432Z,97.80
2023-04-13T01:56:16.696Z,98.10
2023-04-13T01:58:49.808Z,98.20
2023-04-13T02:01:18.177Z,98.50
2023-04-13T02:03:46.652Z,98.70
2023-04-13T02:06:15.608Z,98.90
2023-04-13T02:08:45.356Z,99.10
2023-04-13T02:11:14.007Z,99.30
2023-04-13T02:13:42.372Z,99.50
2023-04-13T02:16:12.201Z,99.70
2023-04-13T02:18:41.209Z,99.80
2023-04-13T02:21:11.462Z,99.80
2023-04-13T02:23:42.209Z,99.90
2023-04-13T02:26:11.275Z,99.90
2023-04-13T02:28:40.342Z,99.90
2023-04-13T02:31:08.800Z,99.90
2023-04-13T02:33:40.340Z,99.90
2023-04-13T02:36:09.537Z,99.90
2023-04-13T02:38:38.465Z,99.90
2023-04-13T02:41:07.945Z,99.90
2023-04-13T02:43:36.199Z,99.90
2023-04-13T02:46:04.646Z,99.90
2023-04-13T02:48:33.156Z,99.90
2023-04-13T02:51:03.236Z,99.90
2023-04-13T02:53:31.578Z,99.90
2023-04-13T02:55:59.866Z,99.90
2023-04-13T02:58:32.527Z,99.90
2023-04-13T03:01:00.961Z,99.90
2023-04-13T03:03:30.500Z,99.90
2023-04-13T03:05:58.935Z,99.90
2023-04-13T03:08:28.623Z,99.90
2023-04-13T03:10:56.933Z,99.90
2023-04-13T03:13:25.223Z,99.90
2023-04-13T03:15:53.493Z,99.90
2023-04-13T03:18:22.155Z,99.90
2023-04-13T03:20:50.624Z,99.90
2023-04-13T03:23:19.446Z,99.90
2023-04-13T03:25:49.140Z,99.90
2023-04-13T03:28:19.103Z,99.90
2023-04-13T03:30:47.465Z,99.90
2023-04-13T03:33:15.901Z,99.90
2023-04-13T03:35:44.178Z,99.90
2023-04-13T03:38:12.654Z,99.90
2023-04-13T03:40:40.979Z,99.90
2023-04-13T03:43:10.733Z,99.90
2023-04-13T03:45:39.028Z,99.90
2023-04-13T03:48:07.973Z,99.90
2023-04-13T03:50:36.355Z,99.90
2023-04-13T03:53:04.625Z,99.90
2023-04-13T03:55:32.925Z,99.90
2023-04-13T03:58:01.750Z,99.90
2023-04-13T04:00:31.818Z,99.90
2023-04-13T04:03:00.272Z,99.90
2023-04-13T04:05:28.631Z,99.90
2023-04-13T04:07:56.861Z,99.90
2023-04-13T04:10:25.193Z,99.90
2023-04-13T04:12:53.423Z,99.90
2023-04-13T04:15:21.782Z,99.90
2023-04-13T04:17:51.675Z,99.90
2023-04-13T04:20:20.308Z,99.90
2023-04-13T04:22:48.595Z,99.90
2023-04-13T04:25:22.130Z,99.90
2023-04-13T04:27:51.019Z,99.90
2023-04-13T04:30:22.534Z,99.90
2023-04-13T04:32:54.812Z,99.90
2023-04-13T04:35:26.180Z,99.90
2023-04-13T04:37:55.934Z,99.90
2023-04-13T04:40:24.227Z,99.90
2023-04-13T04:42:52.563Z,99.90
2023-04-13T04:45:22.380Z,99.90
2023-04-13T04:47:53.212Z,99.90
2023-04-13T04:50:21.744Z,99.90
2023-04-13T04:52:49.995Z,99.90
2023-04-13T04:55:18.669Z,99.90
2023-04-13T04:57:47.268Z,99.90
2023-04-13T05:00:17.023Z,99.90
2023-04-13T05:02:46.637Z,99.90
2023-04-13T05:05:16.557Z,99.90
2023-04-13T05:07:45.077Z,99.90
2023-04-13T05:10:13.548Z,99.90
2023-04-13T05:12:41.834Z,99.90
2023-04-13T05:15:10.868Z,99.90
2023-04-13T05:17:39.259Z,99.90
2023-04-13T05:20:09.266Z,99.90
2023-04-13T05:22:38.984Z,99.90
2023-04-13T05:25:08.319Z,99.90
2023-04-13T05:27:37.155Z,99.90
2023-04-13T05:30:09.678Z,99.90
2023-04-13T05:32:38.162Z,99.90
2023-04-13T05:35:08.205Z,99.90
2023-04-13T05:37:36.505Z,99.90
2023-04-13T05:40:11.170Z,99.90
2023-04-13T05:42:39.581Z,99.90
2023-04-13T05:45:10.660Z,99.90
2023-04-13T05:47:40.313Z,99.90
2023-04-13T05:50:09.954Z,99.90
2023-04-13T05:52:38.281Z,99.90
2023-04-13T05:55:09.236Z,99.90
2023-04-13T05:57:37.565Z,99.90
2023-04-13T06:00:10.560Z,99.90
2023-04-13T06:02:40.453Z,99.90
2023-04-13T06:05:09.606Z,99.90
2023-04-13T06:07:38.052Z,99.90
2023-04-13T06:10:09.090Z,99.90
2023-04-13T06:12:37.478Z,99.90
2023-04-13T06:15:06.858Z,99.90
2023-04-13T06:17:35.289Z,99.90
2023-04-13T06:20:07.184Z,99.90
2023-04-13T06:22:35.709Z,99.90
2023-04-13T06:25:04.788Z,99.90
2023-04-13T06:27:35.099Z,99.90
2023-04-13T06:30:04.323Z,99.90
2023-04-13T06:32:32.733Z,99.90
2023-04-13T06:35:01.019Z,99.90
2023-04-13T06:37:30.316Z,99.90
2023-04-13T06:39:58.819Z,99.90
2023-04-13T06:42:27.172Z,99.90
2023-04-13T06:44:56.834Z,99.90
2023-04-13T06:47:25.334Z,99.90
2023-04-13T06:49:53.649Z,99.90
2023-04-13T06:52:21.898Z,99.90
2023-04-13T06:54:50.171Z,99.90
2023-04-13T06:57:18.951Z,99.90
2023-04-13T06:59:47.155Z,99.90
2023-04-13T07:02:17.136Z,99.90
2023-04-13T07:04:45.672Z,99.90
2023-04-13T07:07:14.030Z,99.90
2023-04-13T07:09:42.834Z,99.90
2023-04-13T07:12:11.283Z,99.90
2023-04-13T07:14:41.178Z,99.90
2023-04-13T07:17:11.968Z,99.90
2023-04-13T07:19:48.043Z,99.90
2023-04-13T07:22:16.801Z,99.90
2023-04-13T07:24:45.039Z,99.90
2023-04-13T07:27:13.412Z,99.90
2023-04-13T07:29:41.682Z,99.90
2023-04-13T07:32:10.084Z,99.90
2023-04-13T07:34:38.713Z,99.90
2023-04-13T07:37:08.421Z,99.90
2023-04-13T07:39:36.903Z,99.90
2023-04-13T07:42:05.384Z,99.90
2023-04-13T07:44:33.750Z,99.90
2023-04-13T07:47:02.323Z,99.90
2023-04-13T07:49:30.770Z,99.90
2023-04-13T07:52:00.343Z,99.90
2023-04-13T07:54:30.081Z,99.90
2023-04-13T07:56:58.442Z,99.90
2023-04-13T07:59:26.781Z,99.90
2023-04-13T08:01:55.139Z,99.90
2023-04-13T08:04:23.524Z,99.90
2023-04-13T08:06:52.239Z,99.90
2023-04-13T08:09:20.808Z,99.90
2023-04-13T08:11:51.555Z,99.90
2023-04-13T08:14:19.820Z,99.90
2023-04-13T08:16:48.132Z,99.90
2023-04-13T08:19:16.391Z,99.90
2023-04-13T08:21:44.692Z,99.90
2023-04-13T08:24:12.938Z,99.90
2023-04-13T08:26:41.389Z,99.90
2023-04-13T08:29:11.382Z,99.90
2023-04-13T08:31:40.744Z,99.90
2023-04-13T08:34:10.499Z,99.90
2023-04-13T08:36:39.076Z,99.90
2023-04-13T08:39:09.867Z,99.90
2023-04-13T08:41:41.102Z,99.90
2023-04-13T08:44:13.584Z,99.90
2023-04-13T08:46:43.062Z,99.90
2023-04-13T08:49:12.443Z,99.90
2023-04-13T08:51:43.652Z,99.90
2023-04-13T08:54:14.903Z,99.90
2023-04-13T08:56:46.994Z,99.90
2023-04-13T08:59:18.351Z,99.90
2023-04-13T09:01:49.018Z,99.90
2023-04-13T09:04:19.095Z,99.90
2023-04-13T09:06:51.145Z,99.90
2023-04-13T09:09:20.719Z,99.70
2023-04-13T09:11:51.814Z,99.70
2023-04-13T09:14:22.322Z,99.60
2023-04-13T09:16:52.091Z,98.80
2023-04-13T09:19:31.150Z,98.20
2023-04-13T09:21:59.454Z,97.80
2023-04-13T09:24:27.991Z,98.30
2023-04-13T09:26:56.449Z,98.80
2023-04-13T09:29:26.209Z,98.70
2023-04-13T09:31:54.566Z,98.80
2023-04-13T09:34:31.872Z,98.50
2023-04-13T09:37:01.804Z,98.10
2023-04-13T09:39:30.941Z,97.40
2023-04-13T09:42:10.380Z,96.80
2023-04-13T09:44:40.119Z,95.60
2023-04-13T09:47:08.723Z,94.50
2023-04-13T09:49:40.438Z,94.00
2023-04-13T09:52:19.272Z,94.10
2023-04-13T09:54:51.366Z,94.00
2023-04-13T09:57:26.254Z,94.10
2023-04-13T09:59:59.017Z,94.00
2023-04-13T10:02:27.894Z,93.90
2023-04-13T10:04:56.876Z,94.10
2023-04-13T10:07:30.149Z,93.90
2023-04-13T10:09:58.446Z,92.50
2023-04-13T10:12:29.588Z,92.20
2023-04-13T10:15:09.926Z,92.20
2023-04-13T10:17:50.013Z,92.60
2023-04-13T10:20:19.315Z,93.10
2023-04-13T10:22:48.112Z,93.00
2023-04-13T10:25:31.951Z,93.10
2023-04-13T10:28:02.167Z,93.20
2023-04-13T10:30:32.044Z,93.20
2023-04-13T10:33:05.944Z,92.30
2023-04-13T10:35:38.028Z,91.30
2023-04-13T10:38:08.827Z,90.00
2023-04-13T10:40:47.264Z,88.50
2023-04-13T10:43:29.369Z,89.40
2023-04-13T10:46:10.225Z,87.80
2023-04-13T10:48:38.974Z,86.20
2023-04-13T10:51:07.476Z,86.20
2023-04-13T10:53:35.996Z,86.60
2023-04-13T10:56:05.375Z,87.30
2023-04-13T10:58:34.579Z,88.20
2023-04-13T11:01:03.422Z,88.80
2023-04-13T11:03:33.369Z,89.10
2023-04-13T11:06:02.577Z,89.50
2023-04-13T11:08:32.639Z,89.70
2023-04-13T11:11:01.521Z,89.70
2023-04-13T11:13:30.583Z,89.70
2023-04-13T11:16:05.766Z,89.50
2023-04-13T11:18:35.479Z,88.80
2023-04-13T11:21:07.904Z,88.50
2023-04-13T11:23:37.424Z,88.60
2023-04-13T11:26:06.465Z,88.50
2023-04-13T11:28:40.198Z,88.20
2023-04-13T11:31:08.651Z,87.60
2023-04-13T11:33:40.246Z,87.20
2023-04-13T11:36:11.958Z,87.10
2023-04-13T11:38:43.263Z,85.00
2023-04-13T11:41:16.979Z,86.10
2023-04-13T11:43:48.445Z,85.30
2023-04-13T11:46:25.317Z,84.50
2023-04-13T11:48:56.107Z,84.40
2023-04-13T11:51:25.675Z,85.10
2023-04-13T11:53:54.670Z,85.00
2023-04-13T11:56:23.898Z,85.80
2023-04-13T11:58:53.351Z,85.30
2023-04-13T12:01:27.112Z,84.80
2023-04-13T12:04:14.973Z,84.40
2023-04-13T12:06:46.273Z,84.60
2023-04-13T12:09:17.917Z,85.10
2023-04-13T12:12:12.048Z,86.00
2023-04-13T12:19:55.138Z,86.60
2023-04-13T12:22:25.251Z,86.80
2023-04-13T12:24:56.661Z,87.20
2023-04-13T12:27:25.530Z,87.30
2023-04-13T12:29:53.928Z,87.40
2023-04-13T12:32:22.184Z,86.20
2023-04-13T12:34:53.822Z,85.00
2023-04-13T12:37:23.163Z,84.60
2023-04-13T12:39:52.165Z,84.30
2023-04-13T12:42:20.439Z,85.70
2023-04-13T12:44:48.996Z,86.70
2023-04-13T12:47:17.425Z,86.80
2023-04-13T12:49:45.813Z,87.10
2023-04-13T12:52:15.493Z,87.20
2023-04-13T12:54:43.794Z,86.50
2023-04-13T12:57:15.381Z,85.80
2023-04-13T12:59:43.659Z,85.20
2023-04-13T13:02:12.021Z,84.10
2023-04-13T13:04:40.516Z,84.20
2023-04-13T13:07:08.931Z,84.30
2023-04-13T13:09:38.662Z,84.80
2023-04-13T13:12:07.359Z,84.70
2023-04-13T13:14:35.615Z,86.00
2023-04-13T13:17:03.952Z,86.80
2023-04-13T13:19:32.240Z,87.10
2023-04-13T13:22:01.426Z,87.60
2023-04-13T13:24:30.065Z,89.00
2023-04-13T13:27:37.509Z,88.20
2023-04-13T13:29:49.308Z,88.40
2023-04-13T13:32:19.501Z,88.40
2023-04-13T13:34:48.423Z,87.80
2023-04-13T13:37:16.733Z,87.30
2023-04-13T13:39:44.989Z,87.10
2023-04-13T13:42:15.385Z,86.60
2023-04-13T13:44:43.941Z,85.40
2023-04-13T13:47:12.298Z,85.00
2023-04-13T13:49:40.936Z,85.60
2023-04-13T13:52:09.457Z,85.40
2023-04-13T13:54:39.636Z,85.30
2023-04-13T13:57:07.944Z,85.80
2023-04-13T13:59:37.626Z,85.60
2023-04-13T14:02:06.283Z,85.80
2023-04-13T14:04:36.627Z,85.60
2023-04-13T14:07:04.901Z,83.20
2023-04-13T14:09:34.158Z,83.20
2023-04-13T14:12:03.758Z,82.40
2023-04-13T14:14:32.132Z,82.20
2023-04-13T14:17:01.826Z,82.20
2023-04-13T14:19:30.149Z,82.30
2023-04-13T14:21:58.670Z,82.20
2023-04-13T14:24:27.316Z,81.80
2023-04-13T14:26:55.593Z,81.70
2023-04-13T14:29:23.937Z,81.40
2023-04-13T14:31:52.654Z,82.00
2023-04-13T14:34:22.516Z,80.80
2023-04-13T14:36:53.805Z,80.50
2023-04-13T14:39:25.964Z,79.30
2023-04-13T14:41:56.313Z,79.10
2023-04-13T14:44:24.942Z,79.40
2023-04-13T14:46:53.600Z,79.80
2023-04-13T14:49:23.314Z,80.20
2023-04-13T14:51:52.194Z,80.20
2023-04-13T14:54:20.532Z,80.90
2023-04-13T14:56:48.842Z,80.60
2023-04-13T14:59:17.346Z,78.60
2023-04-13T15:01:45.878Z,76.70
2023-04-13T15:04:14.545Z,76.60
2023-04-13T15:06:47.635Z,76.90
2023-04-13T15:09:16.778Z,77.10
2023-04-13T15:11:45.651Z,77.20
2023-04-13T15:14:13.933Z,77.50
2023-04-13T15:16:42.571Z,76.90
2023-04-13T15:19:10.896Z,77.30
2023-04-13T15:21:39.278Z,78.20
2023-04-13T15:24:10.634Z,78.00
2023-04-13T15:26:40.722Z,76.90
2023-04-13T15:29:09.280Z,77.10
2023-04-13T15:31:39.605Z,76.90
2023-04-13T15:34:08.997Z,76.40
2023-04-13T15:36:37.391Z,75.80
2023-04-13T15:39:06.420Z,75.90
2023-04-13T15:41:36.170Z,76.10
2023-04-13T15:44:04.429Z,76.30
2023-04-13T15:46:34.105Z,75.20
2023-04-13T15:49:02.883Z,75.60
2023-04-13T15:51:32.058Z,76.00
2023-04-13T15:54:00.412Z,76.70
2023-04-13T15:56:29.024Z,77.30
2023-04-13T15:58:58.905Z,77.70
2023-04-13T16:01:27.647Z,78.60
2023-04-13T16:03:56.378Z,79.10
2023-04-13T16:06:24.745Z,80.10
2023-04-13T16:08:54.294Z,80.40
2023-04-13T16:11:22.655Z,80.60
2023-04-13T16:13:51.204Z,80.80
2023-04-13T16:16:21.092Z,81.00
2023-04-13T16:18:49.482Z,81.10
2023-04-13T16:21:19.997Z,81.50
2023-04-13T16:23:48.567Z,82.10
2023-04-13T16:26:16.815Z,82.60
2023-04-13T16:28:45.118Z,82.70
2023-04-13T16:31:13.629Z,82.50
2023-04-13T16:33:43.544Z,82.60
2023-04-13T16:36:12.333Z,82.70
2023-04-13T16:38:42.747Z,82.80
2023-04-13T16:41:11.648Z,82.90
2023-04-13T16:43:40.105Z,83.60
2023-04-13T16:46:08.442Z,82.90
2023-04-13T16:48:36.831Z,82.60
2023-04-13T16:51:06.682Z,82.80
2023-04-13T16:53:34.975Z,82.90
2023-04-13T16:56:03.571Z,83.00
2023-04-13T16:58:31.914Z,83.20
2023-04-13T17:01:00.136Z,83.20
2023-04-13T17:03:28.862Z,83.30
2023-04-13T17:05:57.197Z,83.40
2023-04-13T17:08:26.925Z,83.40
2023-04-13T17:10:55.160Z,83.60
2023-04-13T17:13:23.446Z,83.70
2023-04-13T17:15:51.916Z,83.90
2023-04-13T17:18:21.931Z,83.90
2023-04-13T17:20:55.733Z,83.90
2023-04-13T17:23:24.163Z,83.80
2023-04-13T17:25:56.677Z,83.40
2023-04-13T17:28:26.285Z,83.00
2023-04-13T17:30:54.989Z,82.90
2023-04-13T17:33:24.752Z,82.80
2023-04-13T17:35:55.537Z,82.80
2023-04-13T17:38:24.626Z,82.80
2023-04-13T17:40:55.002Z,82.80
2023-04-13T17:43:24.011Z,82.80
2023-04-13T17:45:53.786Z,82.70
2023-04-13T17:48:23.499Z,83.20
2023-04-13T17:50:52.673Z,83.60
2023-04-13T17:53:21.696Z,83.30
2023-04-13T17:55:50.180Z,83.40
2023-04-13T17:58:20.098Z,84.20
2023-04-13T18:00:48.435Z,84.40
2023-04-13T18:03:18.328Z,85.00
2023-04-13T18:05:46.816Z,85.30
2023-04-13T18:08:15.098Z,84.20
2023-04-13T18:10:43.411Z,84.50
2023-04-13T18:13:11.874Z,85.30
2023-04-13T18:15:41.608Z,84.90
2023-04-13T18:18:10.097Z,84.20
2023-04-13T18:20:38.435Z,84.10
2023-04-13T18:23:06.713Z,83.90
2023-04-13T18:25:35.211Z,84.30
2023-04-13T18:28:03.563Z,84.50
2023-04-13T18:30:33.784Z,85.20
2023-04-13T18:33:03.785Z,86.00
2023-04-13T18:35:32.084Z,86.90
2023-04-13T18:38:00.346Z,87.50
2023-04-13T18:40:28.674Z,88.00
2023-04-13T18:43:01.293Z,88.10
2023-04-13T18:45:29.657Z,88.50
2023-04-13T18:47:57.916Z,88.50
2023-04-13T18:50:27.822Z,88.40
2023-04-13T18:52:56.197Z,88.50
2023-04-13T18:55:25.709Z,89.00
2023-04-13T18:57:56.327Z,89.30
2023-04-13T19:00:25.185Z,88.40
2023-04-13T19:02:53.898Z,87.60
2023-04-13T19:05:22.707Z,87.30
2023-04-13T19:08:00.456Z,86.90
2023-04-13T19:10:29.337Z,86.30
2023-04-13T19:12:57.767Z,86.00
2023-04-13T19:15:26.695Z,86.40
2023-04-13T19:17:55.316Z,86.20
2023-04-13T19:20:25.356Z,86.30
2023-04-13T19:22:53.659Z,86.80
2023-04-13T19:25:23.997Z,87.30
2023-04-13T19:27:52.346Z,87.30
2023-04-13T19:30:21.817Z,87.20
2023-04-13T19:32:51.293Z,87.60
2023-04-13T19:35:22.686Z,88.30
2023-04-13T19:37:51.921Z,88.90
2023-04-13T19:40:23.621Z,89.30
2023-04-13T19:42:54.542Z,89.50
2023-04-13T19:45:24.152Z,89.70
2023-04-13T19:47:53.334Z,89.90
2023-04-13T19:50:22.968Z,90.00
2023-04-13T19:52:53.362Z,90.30
2023-04-13T19:55:21.774Z,90.10
2023-04-13T19:57:50.051Z,90.10
2023-04-13T20:00:21.013Z,90.20
2023-04-13T20:02:50.952Z,90.40
2023-04-13T20:05:21.265Z,90.50
2023-04-13T20:07:49.969Z,90.40
2023-04-13T20:10:19.081Z,90.40
2023-04-13T20:12:47.557Z,90.50
2023-04-13T20:15:16.615Z,90.80
2023-04-13T20:17:48.006Z,90.90
2023-04-13T20:20:16.653Z,91.00
2023-04-13T20:22:45.650Z,91.00
2023-04-13T20:25:14.252Z,91.00
2023-04-13T20:27:43.023Z,91.10
2023-04-13T20:30:12.946Z,91.20
2023-04-13T20:32:42.274Z,91.40
2023-04-13T20:35:12.538Z,91.40
2023-04-13T20:37:41.321Z,91.50
2023-04-13T20:40:11.803Z,91.70
2023-04-13T20:42:42.657Z,91.80
2023-04-13T20:45:12.899Z,91.80
2023-04-13T20:47:42.631Z,91.80
2023-04-13T20:50:15.598Z,91.80
2023-04-13T20:52:43.980Z,91.90
2023-04-13T20:55:12.910Z,91.80
2023-04-13T20:57:42.279Z,91.70
2023-04-13T21:00:15.361Z,91.80
2023-04-13T21:02:44.658Z,91.90
2023-04-13T21:05:14.754Z,92.00
2023-04-13T21:07:43.518Z,92.10
2023-04-13T21:10:12.437Z,92.20
2023-04-13T21:12:40.778Z,92.20
2023-04-13T21:15:10.451Z,92.20
2023-04-13T21:17:38.807Z,91.90
2023-04-13T21:20:09.544Z,91.60
2023-04-13T21:22:39.897Z,91.40
2023-04-13T21:25:09.139Z,91.40
2023-04-13T21:27:38.005Z,91.60
2023-04-13T21:30:08.514Z,91.80
2023-04-13T21:32:37.475Z,91.90
2023-04-13T21:35:07.123Z,91.90
2023-04-13T21:37:35.745Z,91.90
2023-04-13T21:40:05.901Z,91.80
2023-04-13T21:42:34.847Z,91.80
2023-04-13T21:45:03.457Z,91.90
2023-04-13T21:47:32.628Z,92.10
2023-04-13T21:50:01.814Z,92.60
2023-04-13T21:52:30.245Z,92.30
2023-04-13T21:54:59.905Z,92.50
2023-04-13T21:57:31.013Z,92.50
2023-04-13T21:59:59.270Z,92.50
2023-04-13T22:02:27.717Z,92.30
2023-04-13T22:04:56.130Z,92.10
2023-04-13T22:07:38.990Z,92.30
2023-04-13T22:10:11.177Z,92.40
2023-04-13T22:12:41.339Z,92.50
2023-04-13T22:15:10.857Z,92.50
2023-04-13T22:17:39.742Z,92.60
2023-04-13T22:20:10.558Z,92.90
2023-04-13T22:22:39.413Z,93.20
2023-04-13T22:25:11.498Z,93.40
2023-04-13T22:27:41.604Z,93.50
2023-04-13T22:30:10.839Z,93.60
2023-04-13T22:32:39.285Z,93.70
2023-04-13T22:35:08.661Z,93.80
2023-04-13T22:37:37.018Z,93.80
2023-04-13T22:40:06.564Z,93.90
2023-04-13T22:42:34.768Z,94.00
2023-04-13T22:45:05.589Z,94.10
2023-04-13T22:47:33.922Z,94.10
2023-04-13T22:50:02.581Z,94.10
2023-04-13T22:52:31.015Z,94.50
2023-04-13T22:54:59.218Z,94.30
2023-04-13T22:57:27.500Z,94.40
2023-04-13T22:59:55.733Z,94.50
2023-04-13T23:02:25.605Z,94.40
2023-04-13T23:04:54.098Z,94.30
2023-04-13T23:07:22.494Z,93.80
2023-04-13T23:09:53.078Z,93.60
2023-04-13T23:12:21.653Z,93.40
2023-04-13T23:14:50.174Z,92.70
2023-04-13T23:17:18.566Z,92.20
2023-04-13T23:19:48.263Z,91.50
2023-04-13T23:22:16.615Z,91.10
2023-04-13T23:24:44.860Z,90.80
2023-04-13T23:27:13.226Z,90.50
2023-04-13T23:29:45.581Z,90.50
2023-04-13T23:32:13.978Z,90.30
2023-04-13T23:34:42.239Z,90.20
2023-04-13T23:37:12.076Z,90.10
2023-04-13T23:39:40.392Z,90.20
2023-04-13T23:42:08.763Z,90.40
2023-04-13T23:44:37.009Z,90.60
2023-04-13T23:47:05.580Z,90.80
2023-04-13T23:49:33.866Z,90.90
2023-04-13T23:52:02.751Z,91.00
2023-04-13T23:54:32.425Z,91.10
2023-04-13T23:57:00.737Z,91.00
2023-04-13T23:59:28.966Z,91.20
